sensor_id;sensor_type;location;lat;lon;timestamp;P1;durP1;ratioP1;P2;durP2;ratioP2
20367;SDS011;10343;52.402;9.796;2022-12-18T00:00:01;16.50;;;1.65;;
20367;SDS011;10343;52.402;9.796;2022-12-18T00:02:41;10.85;;;0.20;;
20367;SDS011;10343;52.402;9.796;2022-12-18T00:05:10;15.10;;;0.60;;
20367;SDS011;10343;52.402;9.796;2022-12-18T00:07:38;9.23;;;1.17;;
20367;SDS011;10343;52.402;9.796;2022-12-18T00:10:06;13.45;;;0.50;;
20367;SDS011;10343;52.402;9.796;2022-12-18T00:12:35;9.15;;;0.47;;
20367;SDS011;10343;52.402;9.796;2022-12-18T00:15:04;11.10;;;0.60;;
20367;SDS011;10343;52.402;9.796;2022-12-18T00:17:33;9.77;;;0.22;;
20367;SDS011;10343;52.402;9.796;2022-12-18T00:20:15;13.30;;;0.43;;
20367;SDS011;10343;52.402;9.796;2022-12-18T00:22:49;9.43;;;0.20;;
20367;SDS011;10343;52.402;9.796;2022-12-18T00:25:22;8.43;;;0.50;;
20367;SDS011;10343;52.402;9.796;2022-12-18T00:27:52;8.05;;;0.55;;
20367;SDS011;10343;52.402;9.796;2022-12-18T00:30:21;10.05;;;0.45;;
20367;SDS011;10343;52.402;9.796;2022-12-18T00:32:49;12.30;;;0.57;;
20367;SDS011;10343;52.402;9.796;2022-12-18T00:35:21;8.43;;;0.50;;
20367;SDS011;10343;52.402;9.796;2022-12-18T00:37:49;11.15;;;0.70;;
20367;SDS011;10343;52.402;9.796;2022-12-18T00:40:22;12.93;;;0.40;;
20367;SDS011;10343;52.402;9.796;2022-12-18T00:42:59;12.07;;;0.70;;
20367;SDS011;10343;52.402;9.796;2022-12-18T00:46:08;9.30;;;0.38;;
20367;SDS011;10343;52.402;9.796;2022-12-18T00:48:59;13.10;;;0.98;;
20367;SDS011;10343;52.402;9.796;2022-12-18T01:00:20;9.45;;;0.40;;
20367;SDS011;10343;52.402;9.796;2022-12-18T01:02:59;11.43;;;0.30;;
20367;SDS011;10343;52.402;9.796;2022-12-18T01:05:38;15.13;;;1.05;;
20367;SDS011;10343;52.402;9.796;2022-12-18T01:08:11;10.93;;;0.50;;
20367;SDS011;10343;52.402;9.796;2022-12-18T01:10:55;8.85;;;0.60;;
20367;SDS011;10343;52.402;9.796;2022-12-18T01:13:37;8.82;;;0.20;;
20367;SDS011;10343;52.402;9.796;2022-12-18T01:16:10;10.50;;;0.45;;
20367;SDS011;10343;52.402;9.796;2022-12-18T01:18:43;10.52;;;0.28;;
20367;SDS011;10343;52.402;9.796;2022-12-18T01:21:18;9.82;;;0.45;;
20367;SDS011;10343;52.402;9.796;2022-12-18T01:23:51;11.00;;;0.40;;
20367;SDS011;10343;52.402;9.796;2022-12-18T01:26:22;9.75;;;0.73;;
20367;SDS011;10343;52.402;9.796;2022-12-18T01:28:58;8.52;;;0.30;;
20367;SDS011;10343;52.402;9.796;2022-12-18T01:31:37;9.25;;;0.73;;
20367;SDS011;10343;52.402;9.796;2022-12-18T01:34:09;7.00;;;0.43;;
20367;SDS011;10343;52.402;9.796;2022-12-18T01:36:53;7.72;;;0.52;;
20367;SDS011;10343;52.402;9.796;2022-12-18T01:39:22;6.68;;;0.20;;
20367;SDS011;10343;52.402;9.796;2022-12-18T01:41:52;9.32;;;0.45;;
20367;SDS011;10343;52.402;9.796;2022-12-18T01:44:51;10.38;;;0.40;;
20367;SDS011;10343;52.402;9.796;2022-12-18T01:48:37;8.95;;;0.20;;
20367;SDS011;10343;52.402;9.796;2022-12-18T01:51:32;14.32;;;1.10;;
20367;SDS011;10343;52.402;9.796;2022-12-18T01:54:12;8.35;;;0.82;;
20367;SDS011;10343;52.402;9.796;2022-12-18T01:56:55;8.82;;;0.20;;
20367;SDS011;10343;52.402;9.796;2022-12-18T02:00:26;9.07;;;0.55;;
20367;SDS011;10343;52.402;9.796;2022-12-18T02:03:18;9.25;;;0.40;;
20367;SDS011;10343;52.402;9.796;2022-12-18T02:05:49;11.95;;;0.50;;
20367;SDS011;10343;52.402;9.796;2022-12-18T02:08:27;10.98;;;0.30;;
20367;SDS011;10343;52.402;9.796;2022-12-18T02:11:02;5.80;;;0.38;;
20367;SDS011;10343;52.402;9.796;2022-12-18T02:13:36;8.00;;;0.52;;
20367;SDS011;10343;52.402;9.796;2022-12-18T02:16:13;10.90;;;0.47;;
20367;SDS011;10343;52.402;9.796;2022-12-18T02:18:50;7.80;;;1.05;;
20367;SDS011;10343;52.402;9.796;2022-12-18T02:21:27;9.57;;;0.60;;
20367;SDS011;10343;52.402;9.796;2022-12-18T02:24:11;9.00;;;0.60;;
20367;SDS011;10343;52.402;9.796;2022-12-18T02:26:50;9.75;;;1.02;;
20367;SDS011;10343;52.402;9.796;2022-12-18T02:29:23;9.82;;;0.22;;
20367;SDS011;10343;52.402;9.796;2022-12-18T02:31:55;9.60;;;0.50;;
20367;SDS011;10343;52.402;9.796;2022-12-18T02:34:30;7.88;;;0.30;;
20367;SDS011;10343;52.402;9.796;2022-12-18T02:37:02;10.98;;;0.20;;
20367;SDS011;10343;52.402;9.796;2022-12-18T02:39:34;9.48;;;0.28;;
20367;SDS011;10343;52.402;9.796;2022-12-18T02:42:07;9.35;;;0.40;;
20367;SDS011;10343;52.402;9.796;2022-12-18T02:44:35;9.25;;;0.45;;
20367;SDS011;10343;52.402;9.796;2022-12-18T02:47:11;10.85;;;0.45;;
20367;SDS011;10343;52.402;9.796;2022-12-18T02:49:43;9.88;;;0.35;;
20367;SDS011;10343;52.402;9.796;2022-12-18T02:52:22;10.13;;;0.30;;
20367;SDS011;10343;52.402;9.796;2022-12-18T02:55:00;9.35;;;0.95;;
20367;SDS011;10343;52.402;9.796;2022-12-18T02:57:45;5.75;;;0.22;;
20367;SDS011;10343;52.402;9.796;2022-12-18T03:00:22;9.52;;;0.30;;
20367;SDS011;10343;52.402;9.796;2022-12-18T03:02:53;6.88;;;0.22;;
20367;SDS011;10343;52.402;9.796;2022-12-18T03:05:27;8.85;;;0.43;;
20367;SDS011;10343;52.402;9.796;2022-12-18T03:08:00;10.05;;;0.65;;
20367;SDS011;10343;52.402;9.796;2022-12-18T03:10:37;7.38;;;0.30;;
20367;SDS011;10343;52.402;9.796;2022-12-18T03:13:10;6.88;;;0.20;;
20367;SDS011;10343;52.402;9.796;2022-12-18T03:15:42;9.57;;;0.52;;
20367;SDS011;10343;52.402;9.796;2022-12-18T03:18:15;8.18;;;0.20;;
20367;SDS011;10343;52.402;9.796;2022-12-18T03:20:46;9.45;;;0.22;;
20367;SDS011;10343;52.402;9.796;2022-12-18T03:23:20;13.02;;;0.43;;
20367;SDS011;10343;52.402;9.796;2022-12-18T03:25:52;9.32;;;0.38;;
20367;SDS011;10343;52.402;9.796;2022-12-18T03:28:38;5.30;;;0.20;;
20367;SDS011;10343;52.402;9.796;2022-12-18T03:31:10;11.10;;;0.55;;
20367;SDS011;10343;52.402;9.796;2022-12-18T03:33:43;11.00;;;0.60;;
20367;SDS011;10343;52.402;9.796;2022-12-18T03:36:17;9.10;;;0.30;;
20367;SDS011;10343;52.402;9.796;2022-12-18T03:38:46;9.77;;;0.30;;
20367;SDS011;10343;52.402;9.796;2022-12-18T03:41:16;10.80;;;0.28;;
20367;SDS011;10343;52.402;9.796;2022-12-18T03:44:13;11.50;;;0.60;;
20367;SDS011;10343;52.402;9.796;2022-12-18T03:46:49;8.77;;;0.65;;
20367;SDS011;10343;52.402;9.796;2022-12-18T03:49:25;13.85;;;1.33;;
20367;SDS011;10343;52.402;9.796;2022-12-18T03:52:01;8.00;;;0.40;;
20367;SDS011;10343;52.402;9.796;2022-12-18T03:54:37;10.70;;;0.43;;
20367;SDS011;10343;52.402;9.796;2022-12-18T03:57:14;10.80;;;0.80;;
20367;SDS011;10343;52.402;9.796;2022-12-18T03:59:47;8.30;;;0.82;;
20367;SDS011;10343;52.402;9.796;2022-12-18T04:02:22;10.30;;;0.25;;
20367;SDS011;10343;52.402;9.796;2022-12-18T04:04:53;11.90;;;0.82;;
20367;SDS011;10343;52.402;9.796;2022-12-18T04:07:27;10.85;;;0.85;;
20367;SDS011;10343;52.402;9.796;2022-12-18T04:09:57;9.88;;;0.30;;
20367;SDS011;10343;52.402;9.796;2022-12-18T04:12:29;8.23;;;0.30;;
20367;SDS011;10343;52.402;9.796;2022-12-18T04:14:59;13.52;;;0.98;;
20367;SDS011;10343;52.402;9.796;2022-12-18T04:17:28;11.18;;;0.50;;
20367;SDS011;10343;52.402;9.796;2022-12-18T04:19:56;9.65;;;0.65;;
20367;SDS011;10343;52.402;9.796;2022-12-18T04:22:24;10.85;;;0.65;;
20367;SDS011;10343;52.402;9.796;2022-12-18T04:24:57;12.95;;;0.90;;
20367;SDS011;10343;52.402;9.796;2022-12-18T04:27:33;9.20;;;0.60;;
20367;SDS011;10343;52.402;9.796;2022-12-18T04:30:05;10.27;;;0.95;;
20367;SDS011;10343;52.402;9.796;2022-12-18T04:32:34;7.80;;;0.30;;
20367;SDS011;10343;52.402;9.796;2022-12-18T04:35:02;11.50;;;0.28;;
20367;SDS011;10343;52.402;9.796;2022-12-18T04:37:33;9.27;;;0.60;;
20367;SDS011;10343;52.402;9.796;2022-12-18T04:40:01;10.75;;;0.68;;
20367;SDS011;10343;52.402;9.796;2022-12-18T04:42:38;10.48;;;0.45;;
20367;SDS011;10343;52.402;9.796;2022-12-18T04:45:08;8.43;;;0.47;;
20367;SDS011;10343;52.402;9.796;2022-12-18T04:47:37;7.72;;;0.40;;
20367;SDS011;10343;52.402;9.796;2022-12-18T04:50:05;9.63;;;0.88;;
20367;SDS011;10343;52.402;9.796;2022-12-18T04:52:33;14.55;;;0.70;;
20367;SDS011;10343;52.402;9.796;2022-12-18T04:55:01;11.88;;;0.90;;
20367;SDS011;10343;52.402;9.796;2022-12-18T04:57:29;10.73;;;0.82;;
20367;SDS011;10343;52.402;9.796;2022-12-18T04:59:57;7.88;;;0.82;;
20367;SDS011;10343;52.402;9.796;2022-12-18T05:02:26;7.35;;;0.35;;
20367;SDS011;10343;52.402;9.796;2022-12-18T05:04:54;7.53;;;0.20;;
20367;SDS011;10343;52.402;9.796;2022-12-18T05:07:22;9.32;;;0.30;;
20367;SDS011;10343;52.402;9.796;2022-12-18T05:09:50;6.25;;;0.43;;
20367;SDS011;10343;52.402;9.796;2022-12-18T05:12:18;10.60;;;0.82;;
20367;SDS011;10343;52.402;9.796;2022-12-18T05:14:46;11.02;;;0.40;;
20367;SDS011;10343;52.402;9.796;2022-12-18T05:17:14;6.50;;;0.30;;
20367;SDS011;10343;52.402;9.796;2022-12-18T05:19:43;5.93;;;0.20;;
20367;SDS011;10343;52.402;9.796;2022-12-18T05:22:13;6.00;;;0.20;;
20367;SDS011;10343;52.402;9.796;2022-12-18T05:24:42;7.30;;;0.20;;
20367;SDS011;10343;52.402;9.796;2022-12-18T05:27:10;6.90;;;0.20;;
20367;SDS011;10343;52.402;9.796;2022-12-18T05:29:38;10.45;;;0.57;;
20367;SDS011;10343;52.402;9.796;2022-12-18T05:32:05;8.77;;;0.85;;
20367;SDS011;10343;52.402;9.796;2022-12-18T05:34:33;8.05;;;0.30;;
20367;SDS011;10343;52.402;9.796;2022-12-18T05:37:02;8.13;;;0.40;;
20367;SDS011;10343;52.402;9.796;2022-12-18T05:39:30;8.70;;;0.40;;
20367;SDS011;10343;52.402;9.796;2022-12-18T05:41:58;8.98;;;0.30;;
20367;SDS011;10343;52.402;9.796;2022-12-18T05:44:29;8.70;;;0.40;;
20367;SDS011;10343;52.402;9.796;2022-12-18T05:46:57;6.80;;;0.20;;
20367;SDS011;10343;52.402;9.796;2022-12-18T05:49:26;12.02;;;0.50;;
20367;SDS011;10343;52.402;9.796;2022-12-18T05:51:53;7.78;;;0.20;;
20367;SDS011;10343;52.402;9.796;2022-12-18T05:54:23;6.20;;;0.28;;
20367;SDS011;10343;52.402;9.796;2022-12-18T05:56:52;5.88;;;0.30;;
20367;SDS011;10343;52.402;9.796;2022-12-18T05:59:20;10.27;;;0.32;;
20367;SDS011;10343;52.402;9.796;2022-12-18T06:01:48;6.10;;;0.38;;
20367;SDS011;10343;52.402;9.796;2022-12-18T06:04:17;6.40;;;0.20;;
20367;SDS011;10343;52.402;9.796;2022-12-18T06:06:45;7.45;;;0.22;;
20367;SDS011;10343;52.402;9.796;2022-12-18T06:09:13;7.65;;;0.73;;
20367;SDS011;10343;52.402;9.796;2022-12-18T06:11:42;13.65;;;0.55;;
20367;SDS011;10343;52.402;9.796;2022-12-18T06:14:10;6.75;;;0.20;;
20367;SDS011;10343;52.402;9.796;2022-12-18T06:16:38;5.95;;;0.47;;
20367;SDS011;10343;52.402;9.796;2022-12-18T06:19:06;7.13;;;0.25;;
20367;SDS011;10343;52.402;9.796;2022-12-18T06:21:34;9.80;;;0.30;;
20367;SDS011;10343;52.402;9.796;2022-12-18T06:24:02;6.22;;;0.20;;
20367;SDS011;10343;52.402;9.796;2022-12-18T06:26:31;11.88;;;0.20;;
20367;SDS011;10343;52.402;9.796;2022-12-18T06:29:00;8.25;;;0.20;;
20367;SDS011;10343;52.402;9.796;2022-12-18T06:31:28;9.45;;;0.20;;
20367;SDS011;10343;52.402;9.796;2022-12-18T06:33:56;7.15;;;0.30;;
20367;SDS011;10343;52.402;9.796;2022-12-18T06:36:24;6.78;;;0.30;;
20367;SDS011;10343;52.402;9.796;2022-12-18T06:38:52;5.75;;;0.20;;
20367;SDS011;10343;52.402;9.796;2022-12-18T06:41:20;7.13;;;0.30;;
20367;SDS011;10343;52.402;9.796;2022-12-18T06:43:48;7.45;;;0.30;;
20367;SDS011;10343;52.402;9.796;2022-12-18T06:46:25;7.22;;;0.75;;
20367;SDS011;10343;52.402;9.796;2022-12-18T06:48:53;8.80;;;0.30;;
20367;SDS011;10343;52.402;9.796;2022-12-18T06:51:21;6.15;;;0.13;;
20367;SDS011;10343;52.402;9.796;2022-12-18T06:53:50;5.50;;;0.10;;
20367;SDS011;10343;52.402;9.796;2022-12-18T06:56:18;6.18;;;0.20;;
20367;SDS011;10343;52.402;9.796;2022-12-18T06:58:46;4.82;;;0.25;;
20367;SDS011;10343;52.402;9.796;2022-12-18T07:01:17;6.07;;;0.30;;
20367;SDS011;10343;52.402;9.796;2022-12-18T07:03:50;4.45;;;0.20;;
20367;SDS011;10343;52.402;9.796;2022-12-18T07:06:19;7.93;;;0.65;;
20367;SDS011;10343;52.402;9.796;2022-12-18T07:08:49;5.93;;;0.17;;
20367;SDS011;10343;52.402;9.796;2022-12-18T07:11:17;3.95;;;0.10;;
20367;SDS011;10343;52.402;9.796;2022-12-18T07:13:46;7.75;;;0.52;;
20367;SDS011;10343;52.402;9.796;2022-12-18T07:16:16;6.95;;;0.32;;
20367;SDS011;10343;52.402;9.796;2022-12-18T07:18:51;7.63;;;0.20;;
20367;SDS011;10343;52.402;9.796;2022-12-18T07:21:20;7.45;;;0.40;;
20367;SDS011;10343;52.402;9.796;2022-12-18T07:23:48;8.48;;;0.68;;
20367;SDS011;10343;52.402;9.796;2022-12-18T07:26:17;7.53;;;0.40;;
20367;SDS011;10343;52.402;9.796;2022-12-18T07:28:47;5.00;;;0.10;;
20367;SDS011;10343;52.402;9.796;2022-12-18T07:31:17;8.48;;;0.20;;
20367;SDS011;10343;52.402;9.796;2022-12-18T07:33:48;4.80;;;0.10;;
20367;SDS011;10343;52.402;9.796;2022-12-18T07:36:17;6.70;;;0.20;;
20367;SDS011;10343;52.402;9.796;2022-12-18T07:38:49;5.55;;;0.20;;
20367;SDS011;10343;52.402;9.796;2022-12-18T07:41:18;5.80;;;0.15;;
20367;SDS011;10343;52.402;9.796;2022-12-18T07:43:47;8.25;;;0.28;;
20367;SDS011;10343;52.402;9.796;2022-12-18T07:46:15;9.40;;;0.40;;
20367;SDS011;10343;52.402;9.796;2022-12-18T07:48:44;5.50;;;0.30;;
20367;SDS011;10343;52.402;9.796;2022-12-18T07:51:15;8.60;;;0.20;;
20367;SDS011;10343;52.402;9.796;2022-12-18T07:53:57;6.07;;;0.20;;
20367;SDS011;10343;52.402;9.796;2022-12-18T07:57:08;5.78;;;0.30;;
20367;SDS011;10343;52.402;9.796;2022-12-18T08:03:00;10.80;;;0.20;;
20367;SDS011;10343;52.402;9.796;2022-12-18T08:05:28;8.57;;;0.73;;
20367;SDS011;10343;52.402;9.796;2022-12-18T08:07:56;9.05;;;0.35;;
20367;SDS011;10343;52.402;9.796;2022-12-18T08:10:27;6.13;;;0.20;;
20367;SDS011;10343;52.402;9.796;2022-12-18T08:12:55;6.50;;;0.30;;
20367;SDS011;10343;52.402;9.796;2022-12-18T08:15:30;10.07;;;0.50;;
20367;SDS011;10343;52.402;9.796;2022-12-18T08:17:58;5.13;;;0.40;;
20367;SDS011;10343;52.402;9.796;2022-12-18T08:20:26;6.07;;;0.28;;
20367;SDS011;10343;52.402;9.796;2022-12-18T08:22:53;10.63;;;0.47;;
20367;SDS011;10343;52.402;9.796;2022-12-18T08:25:21;5.25;;;0.47;;
20367;SDS011;10343;52.402;9.796;2022-12-18T08:27:51;9.23;;;0.60;;
20367;SDS011;10343;52.402;9.796;2022-12-18T08:30:20;8.15;;;0.40;;
20367;SDS011;10343;52.402;9.796;2022-12-18T08:32:50;6.07;;;0.45;;
20367;SDS011;10343;52.402;9.796;2022-12-18T08:35:19;11.98;;;0.40;;
20367;SDS011;10343;52.402;9.796;2022-12-18T08:37:49;5.55;;;0.38;;
20367;SDS011;10343;52.402;9.796;2022-12-18T08:40:17;13.90;;;0.30;;
20367;SDS011;10343;52.402;9.796;2022-12-18T08:42:45;3.97;;;0.20;;
20367;SDS011;10343;52.402;9.796;2022-12-18T08:45:32;6.97;;;0.20;;
20367;SDS011;10343;52.402;9.796;2022-12-18T08:48:01;9.95;;;0.30;;
20367;SDS011;10343;52.402;9.796;2022-12-18T08:50:30;5.97;;;0.17;;
20367;SDS011;10343;52.402;9.796;2022-12-18T08:52:58;9.02;;;0.20;;
20367;SDS011;10343;52.402;9.796;2022-12-18T08:55:27;4.95;;;0.22;;
20367;SDS011;10343;52.402;9.796;2022-12-18T08:57:55;7.20;;;0.30;;
20367;SDS011;10343;52.402;9.796;2022-12-18T09:00:24;7.38;;;0.98;;
20367;SDS011;10343;52.402;9.796;2022-12-18T09:02:53;6.93;;;0.20;;
20367;SDS011;10343;52.402;9.796;2022-12-18T09:05:22;5.70;;;0.17;;
20367;SDS011;10343;52.402;9.796;2022-12-18T09:07:52;6.82;;;0.17;;
20367;SDS011;10343;52.402;9.796;2022-12-18T09:10:20;8.55;;;0.30;;
20367;SDS011;10343;52.402;9.796;2022-12-18T09:12:49;8.05;;;0.20;;
20367;SDS011;10343;52.402;9.796;2022-12-18T09:15:17;4.80;;;0.17;;
20367;SDS011;10343;52.402;9.796;2022-12-18T09:17:47;5.80;;;0.20;;
20367;SDS011;10343;52.402;9.796;2022-12-18T09:20:32;7.82;;;0.20;;
20367;SDS011;10343;52.402;9.796;2022-12-18T09:23:07;8.00;;;0.30;;
20367;SDS011;10343;52.402;9.796;2022-12-18T09:25:40;7.35;;;0.30;;
20367;SDS011;10343;52.402;9.796;2022-12-18T09:28:10;4.97;;;0.20;;
20367;SDS011;10343;52.402;9.796;2022-12-18T09:30:47;8.35;;;0.60;;
20367;SDS011;10343;52.402;9.796;2022-12-18T09:33:17;7.15;;;0.13;;
20367;SDS011;10343;52.402;9.796;2022-12-18T09:39:39;5.50;;;0.20;;
20367;SDS011;10343;52.402;9.796;2022-12-18T09:42:36;5.90;;;0.20;;
20367;SDS011;10343;52.402;9.796;2022-12-18T09:45:28;7.40;;;0.13;;
20367;SDS011;10343;52.402;9.796;2022-12-18T09:48:08;6.93;;;0.20;;
20367;SDS011;10343;52.402;9.796;2022-12-18T09:50:41;4.07;;;0.10;;
20367;SDS011;10343;52.402;9.796;2022-12-18T09:53:14;7.10;;;0.10;;
20367;SDS011;10343;52.402;9.796;2022-12-18T09:55:45;6.20;;;0.20;;
20367;SDS011;10343;52.402;9.796;2022-12-18T09:58:17;6.75;;;0.28;;
20367;SDS011;10343;52.402;9.796;2022-12-18T10:00:51;5.38;;;0.20;;
20367;SDS011;10343;52.402;9.796;2022-12-18T10:03:19;9.52;;;0.45;;
20367;SDS011;10343;52.402;9.796;2022-12-18T10:05:51;3.92;;;0.22;;
20367;SDS011;10343;52.402;9.796;2022-12-18T10:08:35;6.13;;;0.20;;
20367;SDS011;10343;52.402;9.796;2022-12-18T10:11:26;7.30;;;1.17;;
20367;SDS011;10343;52.402;9.796;2022-12-18T10:15:00;7.50;;;0.10;;
20367;SDS011;10343;52.402;9.796;2022-12-18T10:17:41;3.97;;;0.10;;
20367;SDS011;10343;52.402;9.796;2022-12-18T10:20:16;3.38;;;0.10;;
20367;SDS011;10343;52.402;9.796;2022-12-18T10:22:53;7.60;;;0.20;;
20367;SDS011;10343;52.402;9.796;2022-12-18T10:25:28;8.52;;;0.30;;
20367;SDS011;10343;52.402;9.796;2022-12-18T10:28:07;4.38;;;0.10;;
20367;SDS011;10343;52.402;9.796;2022-12-18T10:30:46;5.72;;;0.30;;
20367;SDS011;10343;52.402;9.796;2022-12-18T10:33:20;3.08;;;0.10;;
20367;SDS011;10343;52.402;9.796;2022-12-18T10:35:54;8.98;;;0.30;;
20367;SDS011;10343;52.402;9.796;2022-12-18T10:38:24;5.47;;;0.20;;
20367;SDS011;10343;52.402;9.796;2022-12-18T10:40:57;7.70;;;0.20;;
20367;SDS011;10343;52.402;9.796;2022-12-18T10:43:47;5.88;;;0.10;;
20367;SDS011;10343;52.402;9.796;2022-12-18T10:46:17;5.80;;;0.10;;
20367;SDS011;10343;52.402;9.796;2022-12-18T10:48:51;3.83;;;0.20;;
20367;SDS011;10343;52.402;9.796;2022-12-18T10:51:26;6.90;;;0.20;;
20367;SDS011;10343;52.402;9.796;2022-12-18T10:54:21;6.72;;;0.17;;
20367;SDS011;10343;52.402;9.796;2022-12-18T10:56:53;6.13;;;0.10;;
20367;SDS011;10343;52.402;9.796;2022-12-18T10:59:49;6.90;;;0.10;;
20367;SDS011;10343;52.402;9.796;2022-12-18T11:02:26;4.05;;;0.10;;
20367;SDS011;10343;52.402;9.796;2022-12-18T11:05:20;5.72;;;0.20;;
20367;SDS011;10343;52.402;9.796;2022-12-18T11:07:57;3.58;;;0.10;;
20367;SDS011;10343;52.402;9.796;2022-12-18T11:10:28;4.95;;;0.30;;
20367;SDS011;10343;52.402;9.796;2022-12-18T11:13:19;5.32;;;0.10;;
20367;SDS011;10343;52.402;9.796;2022-12-18T11:16:07;3.28;;;0.10;;
20367;SDS011;10343;52.402;9.796;2022-12-18T11:18:49;3.47;;;0.20;;
20367;SDS011;10343;52.402;9.796;2022-12-18T11:21:18;4.13;;;0.10;;
20367;SDS011;10343;52.402;9.796;2022-12-18T11:23:49;3.28;;;0.10;;
20367;SDS011;10343;52.402;9.796;2022-12-18T11:26:41;4.15;;;0.10;;
20367;SDS011;10343;52.402;9.796;2022-12-18T11:29:17;3.97;;;0.10;;
20367;SDS011;10343;52.402;9.796;2022-12-18T11:31:51;3.35;;;0.10;;
20367;SDS011;10343;52.402;9.796;2022-12-18T11:40:39;6.05;;;0.10;;
20367;SDS011;10343;52.402;9.796;2022-12-18T12:00:24;5.78;;;0.10;;
20367;SDS011;10343;52.402;9.796;2022-12-18T12:12:22;6.25;;;0.10;;
20367;SDS011;10343;52.402;9.796;2022-12-18T12:15:20;1.77;;;0.08;;
20367;SDS011;10343;52.402;9.796;2022-12-18T12:18:24;5.03;;;0.10;;
20367;SDS011;10343;52.402;9.796;2022-12-18T12:21:46;7.90;;;0.10;;
20367;SDS011;10343;52.402;9.796;2022-12-18T12:40:23;1.42;;;0.00;;
20367;SDS011;10343;52.402;9.796;2022-12-18T12:45:54;5.15;;;0.10;;
20367;SDS011;10343;52.402;9.796;2022-12-18T12:49:02;3.05;;;0.10;;
20367;SDS011;10343;52.402;9.796;2022-12-18T12:51:33;3.28;;;0.10;;
20367;SDS011;10343;52.402;9.796;2022-12-18T12:54:11;3.28;;;0.10;;
20367;SDS011;10343;52.402;9.796;2022-12-18T12:56:48;6.47;;;0.28;;
20367;SDS011;10343;52.402;9.796;2022-12-18T12:59:27;6.28;;;0.20;;
20367;SDS011;10343;52.402;9.796;2022-12-18T13:02:06;4.60;;;0.10;;
20367;SDS011;10343;52.402;9.796;2022-12-18T13:04:46;2.55;;;0.10;;
20367;SDS011;10343;52.402;9.796;2022-12-18T13:07:20;6.72;;;0.10;;
20367;SDS011;10343;52.402;9.796;2022-12-18T13:10:22;4.65;;;0.20;;
20367;SDS011;10343;52.402;9.796;2022-12-18T13:12:56;5.50;;;0.20;;
20367;SDS011;10343;52.402;9.796;2022-12-18T13:15:26;8.48;;;0.30;;
20367;SDS011;10343;52.402;9.796;2022-12-18T13:18:06;9.13;;;0.10;;
20367;SDS011;10343;52.402;9.796;2022-12-18T13:20:42;7.80;;;0.30;;
20367;SDS011;10343;52.402;9.796;2022-12-18T13:23:32;10.43;;;0.50;;
20367;SDS011;10343;52.402;9.796;2022-12-18T13:29:02;11.45;;;0.85;;
20367;SDS011;10343;52.402;9.796;2022-12-18T13:34:29;10.45;;;0.50;;
20367;SDS011;10343;52.402;9.796;2022-12-18T13:40:01;11.52;;;1.50;;
20367;SDS011;10343;52.402;9.796;2022-12-18T13:42:38;13.20;;;0.65;;
20367;SDS011;10343;52.402;9.796;2022-12-18T13:45:40;15.95;;;1.15;;
20367;SDS011;10343;52.402;9.796;2022-12-18T13:48:21;11.25;;;0.70;;
20367;SDS011;10343;52.402;9.796;2022-12-18T13:50:52;13.93;;;1.52;;
20367;SDS011;10343;52.402;9.796;2022-12-18T13:53:27;17.73;;;0.77;;
20367;SDS011;10343;52.402;9.796;2022-12-18T13:56:00;11.15;;;1.13;;
20367;SDS011;10343;52.402;9.796;2022-12-18T13:58:30;9.50;;;0.57;;
20367;SDS011;10343;52.402;9.796;2022-12-18T14:01:01;13.88;;;1.73;;
20367;SDS011;10343;52.402;9.796;2022-12-18T14:03:31;13.20;;;0.40;;
20367;SDS011;10343;52.402;9.796;2022-12-18T14:06:01;47.30;;;12.55;;
20367;SDS011;10343;52.402;9.796;2022-12-18T14:08:33;17.15;;;1.55;;
20367;SDS011;10343;52.402;9.796;2022-12-18T14:11:07;13.35;;;0.98;;
20367;SDS011;10343;52.402;9.796;2022-12-18T14:13:48;12.07;;;0.95;;
20367;SDS011;10343;52.402;9.796;2022-12-18T14:16:18;12.10;;;1.27;;
20367;SDS011;10343;52.402;9.796;2022-12-18T14:18:50;17.33;;;1.48;;
20367;SDS011;10343;52.402;9.796;2022-12-18T14:21:37;15.05;;;1.27;;
20367;SDS011;10343;52.402;9.796;2022-12-18T14:24:12;20.63;;;2.28;;
20367;SDS011;10343;52.402;9.796;2022-12-18T14:26:45;13.98;;;2.03;;
20367;SDS011;10343;52.402;9.796;2022-12-18T14:29:22;19.52;;;1.55;;
20367;SDS011;10343;52.402;9.796;2022-12-18T14:32:09;13.93;;;2.03;;
20367;SDS011;10343;52.402;9.796;2022-12-18T14:34:43;14.40;;;1.60;;
20367;SDS011;10343;52.402;9.796;2022-12-18T14:37:13;14.13;;;1.60;;
20367;SDS011;10343;52.402;9.796;2022-12-18T14:39:51;16.70;;;1.92;;
20367;SDS011;10343;52.402;9.796;2022-12-18T14:42:21;12.27;;;1.23;;
20367;SDS011;10343;52.402;9.796;2022-12-18T14:48:16;14.90;;;1.52;;
20367;SDS011;10343;52.402;9.796;2022-12-18T14:50:56;12.02;;;1.15;;
20367;SDS011;10343;52.402;9.796;2022-12-18T14:53:32;18.10;;;1.58;;
20367;SDS011;10343;52.402;9.796;2022-12-18T14:56:04;16.00;;;1.60;;
20367;SDS011;10343;52.402;9.796;2022-12-18T14:58:44;17.00;;;1.17;;
20367;SDS011;10343;52.402;9.796;2022-12-18T15:01:22;13.07;;;1.70;;
20367;SDS011;10343;52.402;9.796;2022-12-18T15:03:55;18.17;;;1.83;;
20367;SDS011;10343;52.402;9.796;2022-12-18T15:06:30;16.42;;;1.05;;
20367;SDS011;10343;52.402;9.796;2022-12-18T15:09:05;12.30;;;0.95;;
20367;SDS011;10343;52.402;9.796;2022-12-18T15:11:49;14.88;;;1.77;;
20367;SDS011;10343;52.402;9.796;2022-12-18T15:14:23;17.67;;;1.52;;
20367;SDS011;10343;52.402;9.796;2022-12-18T15:17:03;17.55;;;2.42;;
20367;SDS011;10343;52.402;9.796;2022-12-18T15:19:37;14.38;;;1.33;;
20367;SDS011;10343;52.402;9.796;2022-12-18T15:22:21;16.50;;;2.85;;
20367;SDS011;10343;52.402;9.796;2022-12-18T15:24:53;13.95;;;1.83;;
20367;SDS011;10343;52.402;9.796;2022-12-18T15:27:24;18.38;;;3.03;;
20367;SDS011;10343;52.402;9.796;2022-12-18T15:29:59;18.48;;;3.03;;
20367;SDS011;10343;52.402;9.796;2022-12-18T15:32:45;16.52;;;2.50;;
20367;SDS011;10343;52.402;9.796;2022-12-18T15:35:18;16.00;;;3.00;;
20367;SDS011;10343;52.402;9.796;2022-12-18T15:37:48;19.08;;;3.65;;
20367;SDS011;10343;52.402;9.796;2022-12-18T15:40:16;22.52;;;4.60;;
20367;SDS011;10343;52.402;9.796;2022-12-18T15:42:46;18.08;;;3.35;;
20367;SDS011;10343;52.402;9.796;2022-12-18T15:45:33;23.10;;;4.25;;
20367;SDS011;10343;52.402;9.796;2022-12-18T15:48:01;15.65;;;1.65;;
20367;SDS011;10343;52.402;9.796;2022-12-18T15:50:39;13.93;;;0.98;;
20367;SDS011;10343;52.402;9.796;2022-12-18T15:53:07;22.65;;;3.28;;
20367;SDS011;10343;52.402;9.796;2022-12-18T15:55:36;18.65;;;1.80;;
20367;SDS011;10343;52.402;9.796;2022-12-18T15:58:26;17.27;;;2.20;;
20367;SDS011;10343;52.402;9.796;2022-12-18T16:00:56;16.30;;;1.58;;
20367;SDS011;10343;52.402;9.796;2022-12-18T16:03:26;16.63;;;1.65;;
20367;SDS011;10343;52.402;9.796;2022-12-18T16:05:56;34.60;;;7.18;;
20367;SDS011;10343;52.402;9.796;2022-12-18T16:08:29;14.77;;;2.20;;
20367;SDS011;10343;52.402;9.796;2022-12-18T16:10:57;14.40;;;2.08;;
20367;SDS011;10343;52.402;9.796;2022-12-18T16:13:25;12.73;;;1.10;;
20367;SDS011;10343;52.402;9.796;2022-12-18T16:15:54;11.95;;;1.67;;
20367;SDS011;10343;52.402;9.796;2022-12-18T16:18:22;16.40;;;1.92;;
20367;SDS011;10343;52.402;9.796;2022-12-18T16:20:50;11.68;;;1.52;;
20367;SDS011;10343;52.402;9.796;2022-12-18T16:23:19;13.07;;;1.58;;
20367;SDS011;10343;52.402;9.796;2022-12-18T16:25:47;13.38;;;2.25;;
20367;SDS011;10343;52.402;9.796;2022-12-18T16:28:17;11.45;;;1.50;;
20367;SDS011;10343;52.402;9.796;2022-12-18T16:30:45;16.10;;;1.92;;
20367;SDS011;10343;52.402;9.796;2022-12-18T16:33:13;16.42;;;2.17;;
20367;SDS011;10343;52.402;9.796;2022-12-18T16:35:41;13.68;;;1.80;;
20367;SDS011;10343;52.402;9.796;2022-12-18T16:38:10;13.27;;;1.50;;
20367;SDS011;10343;52.402;9.796;2022-12-18T16:40:39;10.45;;;0.55;;
20367;SDS011;10343;52.402;9.796;2022-12-18T16:43:29;9.40;;;0.60;;
20367;SDS011;10343;52.402;9.796;2022-12-18T16:45:58;10.90;;;1.85;;